Time;durP1;ratioP1;P1;durP2;ratioP2;P2;SDS_P1;SDS_P2;PMS_P1;PMS_P2;Temp;Humidity;BMP_temperature;BMP_pressure;BME280_temperature;BME280_humidity;BME280_pressure;Samples;Min_cycle;Max_cycle;Signal;HPM_P1;HPM_P2
2021/03/05 01:47:39;;;;;;;31.63;22.13;;;;;;;;;;1546151;22;20354;-82
2021/03/05 01:51:04;;;;;;;;;;;;;;;;;;;;;
2021/03/05 05:29:52;;;;;;;17.37;12.80;;;;;;;;;;2304923;22;20301;-78
2021/03/05 05:36:37;;;;;;;16.93;12.50;;;;;;;;;;5002524;28;20559;-90
2021/03/05 05:39:40;;;;;;;18.63;14.07;;;;;;;;;;4982758;28;20282;-90
2021/03/05 05:42:28;;;;;;;18.40;12.98;;;;;;;;;;4950153;28;20027;-92
2021/03/05 06:06:48;;;;;;;;;;;;;;;;;;;;;
2021/03/05 06:13:02;;;;;;;23.40;14.15;;;;;;;;;;4836712;29;20041;-87
2021/03/05 06:16:10;;;;;;;19.02;13.27;;;;;;;;;;4889777;28;20131;-89
2021/03/05 06:43:13;;;;;;;26.10;14.55;;;;;;;;;;4961997;28;20046;-86
2021/03/05 06:46:18;;;;;;;23.83;15.55;;;;;;;;;;4966158;28;20063;-91
2021/03/05 06:49:22;;;;;;;21.73;14.73;;;;;;;;;;4984345;28;20010;-87
2021/03/05 06:52:21;;;;;;;;;;;;;;;;;;;;;
2021/03/05 06:55:38;;;;;;;22.50;15.00;;;;;;;;;;4913414;28;20046;-91
2021/03/05 06:58:44;;;;;;;33.00;22.05;;;;;;;;;;4976649;28;20037;-91
2021/03/05 07:01:44;;;;;;;25.52;17.58;;;;;;;;;;4973906;28;20027;-91
2021/03/05 07:04:43;;;;;;;;;;;;;;;;;;;;;
2021/03/05 07:07:40;;;;;;;26.00;16.02;;;;;;;;;;4973389;28;20106;-88
2021/03/05 07:10:31;;;;;;;22.67;14.98;;;;;;;;;;4970092;28;20022;-88
2021/03/05 07:13:16;;;;;;;21.00;13.25;;;;;;;;;;4967529;28;20026;-88
2021/03/05 07:16:09;;;;;;;21.90;15.10;;;;;;;;;;4973897;28;20092;-88
2021/03/05 07:18:57;;;;;;;21.10;13.95;;;;;;;;;;4973542;28;20098;-90
2021/03/05 07:21:47;;;;;;;22.40;15.07;;;;;;;;;;4984621;28;20023;-91
2021/03/05 07:27:59;;;;;;;30.75;18.45;;;;;;;;;;4961111;28;20027;-90
2021/03/05 07:30:52;;;;;;;24.83;15.88;;;;;;;;;;4917530;29;20035;-89
2021/03/05 07:33:50;;;;;;;22.00;15.48;;;;;;;;;;4916879;29;20020;-82
2021/03/05 07:36:48;;;;;;;22.13;13.82;;;;;;;;;;4917937;29;20161;-82
2021/03/05 07:39:47;;;;;;;24.60;13.95;;;;;;;;;;4911029;29;20028;-82
2021/03/05 07:42:35;;;;;;;21.85;13.85;;;;;;;;;;4900595;29;20461;-82
2021/03/05 07:45:23;;;;;;;22.70;13.88;;;;;;;;;;4893719;29;20032;-82
2021/03/05 07:48:22;;;;;;;;;;;;;;;;;;;;;
2021/03/05 07:51:08;;;;;;;23.08;14.35;;;;;;;;;;4906810;29;20095;-81
2021/03/05 07:53:56;;;;;;;24.23;15.02;;;;;;;;;;4891337;29;20107;-82
2021/03/05 07:56:45;;;;;;;22.52;14.23;;;;;;;;;;4886974;29;20032;-82
2021/03/05 08:03:11;;;;;;;22.73;14.88;;;;;;;;;;4947024;28;20046;-90
2021/03/05 08:05:59;;;;;;;20.58;15.68;;;;;;;;;;4976126;28;20035;-89
2021/03/05 08:09:17;;;;;;;23.35;14.05;;;;;;;;;;4940215;28;20035;-89
2021/03/05 08:28:08;;;;;;;24.55;14.38;;;;;;;;;;4922297;29;20048;-89
2021/03/05 08:30:56;;;;;;;24.50;13.88;;;;;;;;;;4911354;29;20020;-92
2021/03/05 08:33:51;;;;;;;21.63;13.35;;;;;;;;;;4908952;29;20755;-90
2021/03/05 08:37:18;;;;;;;20.25;14.32;;;;;;;;;;4894551;29;20037;-90
2021/03/05 09:40:59;;;;;;;18.05;11.80;;;;;;;;;;5024315;28;20033;-87
2021/03/05 09:44:07;;;;;;;18.02;11.57;;;;;;;;;;5042493;28;20030;-86
2021/03/05 09:47:25;;;;;;;;;;;;;;;;;;;;;
2021/03/05 09:50:27;;;;;;;21.70;11.70;;;;;;;;;;5025360;28;20054;-89
2021/03/05 09:53:34;;;;;;;20.48;11.30;;;;;;;;;;5009532;28;20037;-89
2021/03/05 09:59:52;;;;;;;17.13;10.57;;;;;;;;;;5032138;28;20036;-89
2021/03/05 10:02:47;;;;;;;18.48;10.20;;;;;;;;;;5030957;28;20028;-89
2021/03/05 10:06:18;;;;;;;;;;;;;;;;;;;;;
2021/03/05 10:09:25;;;;;;;19.63;10.68;;;;;;;;;;4921160;28;20039;-89
2021/03/05 10:12:31;;;;;;;15.63;10.45;;;;;;;;;;5023450;28;20101;-90
2021/03/05 10:15:43;;;;;;;19.85;11.15;;;;;;;;;;5014814;28;20043;-90
2021/03/05 10:19:06;;;;;;;;;;;;;;;;;;;;;
2021/03/05 10:22:28;;;;;;;22.25;10.55;;;;;;;;;;5024368;28;20108;-90
2021/03/05 10:32:04;;;;;;;16.45;11.25;;;;;;;;;;5030557;28;20125;-93
2021/03/05 10:35:10;;;;;;;;;;;;;;;;;;;;;
2021/03/05 10:37:54;;;;;;;17.88;10.45;;;;;;;;;;4944079;28;20682;-88
2021/03/05 10:51:11;;;;;;;15.85;10.23;;;;;;;;;;5598793;23;20454;-89
2021/03/05 10:53:59;;;;;;;19.08;10.82;;;;;;;;;;5050693;28;20029;-88
2021/03/05 11:08:01;;;;;;;18.05;11.30;;;;;;;;;;4868915;29;20026;-88
2021/03/05 11:10:47;;;;;;;22.52;12.25;;;;;;;;;;4886103;29;20115;-89
2021/03/05 11:13:35;;;;;;;18.38;11.80;;;;;;;;;;5006583;28;20103;-87
2021/03/05 11:16:21;;;;;;;21.40;11.93;;;;;;;;;;5003319;28;20026;-88
2021/03/05 11:19:07;;;;;;;34.08;23.90;;;;;;;;;;5050993;28;20355;-89
2021/03/05 11:21:53;;;;;;;25.15;12.75;;;;;;;;;;5037900;28;20024;-91
2021/03/05 11:24:38;;;;;;;21.10;12.35;;;;;;;;;;5046626;28;20096;-91
2021/03/05 11:27:37;;;;;;;;;;;;;;;;;;;;;
2021/03/05 11:30:32;;;;;;;19.98;12.48;;;;;;;;;;5042590;28;20021;-90
2021/03/05 11:33:17;;;;;;;19.85;11.70;;;;;;;;;;5063779;28;20060;-89
2021/03/05 11:36:03;;;;;;;17.50;11.68;;;;;;;;;;5057569;28;20059;-91
2021/03/05 11:39:05;;;;;;;20.77;12.25;;;;;;;;;;5049656;28;20028;-88
2021/03/05 11:41:54;;;;;;;20.90;12.85;;;;;;;;;;5041076;28;20028;-85
2021/03/05 11:44:39;;;;;;;16.52;11.35;;;;;;;;;;5049626;28;20055;-85
2021/03/05 11:47:25;;;;;;;24.60;13.02;;;;;;;;;;5045123;28;20026;-88
2021/03/05 11:50:19;;;;;;;17.45;11.68;;;;;;;;;;5050911;28;20091;-89
2021/03/05 11:53:13;;;;;;;17.85;11.43;;;;;;;;;;5045322;28;20066;-88
2021/03/05 11:55:58;;;;;;;18.05;11.75;;;;;;;;;;5032555;28;20025;-87
2021/03/05 11:58:44;;;;;;;18.98;11.02;;;;;;;;;;5033972;28;20372;-86
2021/03/05 12:01:33;;;;;;;20.95;12.95;;;;;;;;;;5054428;28;20024;-88
2021/03/05 12:04:18;;;;;;;21.42;11.65;;;;;;;;;;5051546;28;20025;-87
2021/03/05 12:07:03;;;;;;;18.67;12.20;;;;;;;;;;5045850;28;20108;-85
2021/03/05 12:09:49;;;;;;;21.90;12.43;;;;;;;;;;5048423;28;20029;-85
2021/03/05 12:12:36;;;;;;;20.35;12.32;;;;;;;;;;5045889;28;20328;-86
2021/03/05 12:15:27;;;;;;;21.33;11.90;;;;;;;;;;5046825;28;20028;-85
2021/03/05 12:18:12;;;;;;;19.70;12.10;;;;;;;;;;5042029;28;20021;-87
2021/03/05 12:20:58;;;;;;;18.25;11.40;;;;;;;;;;5049315;28;20170;-87
2021/03/05 12:23:43;;;;;;;18.17;11.57;;;;;;;;;;5043448;28;20052;-85
2021/03/05 12:26:28;;;;;;;16.55;10.90;;;;;;;;;;5038045;28;20036;-85
2021/03/05 12:29:13;;;;;;;20.80;11.65;;;;;;;;;;5041600;28;20324;-88
2021/03/05 12:31:59;;;;;;;20.98;12.45;;;;;;;;;;5056404;28;20032;-86
2021/03/05 12:34:45;;;;;;;17.50;12.05;;;;;;;;;;5039102;28;20052;-85
2021/03/05 12:37:30;;;;;;;22.42;12.02;;;;;;;;;;5050663;28;20111;-87
2021/03/05 12:40:16;;;;;;;21.23;11.30;;;;;;;;;;5046704;28;20025;-90
2021/03/05 12:43:01;;;;;;;17.58;11.02;;;;;;;;;;5051966;28;20157;-84
2021/03/05 12:45:49;;;;;;;19.25;11.43;;;;;;;;;;5043623;28;20053;-85
2021/03/05 12:48:35;;;;;;;18.80;12.30;;;;;;;;;;5036337;28;20017;-86
2021/03/05 12:51:30;;;;;;;18.83;11.52;;;;;;;;;;5043673;28;20041;-86
2021/03/05 12:54:16;;;;;;;22.77;12.43;;;;;;;;;;5038995;28;20017;-86
2021/03/05 12:57:01;;;;;;;16.38;11.38;;;;;;;;;;5051435;28;20586;-88
2021/03/05 12:59:47;;;;;;;21.23;11.80;;;;;;;;;;5058820;28;20177;-87
2021/03/05 13:02:32;;;;;;;16.52;11.52;;;;;;;;;;5051873;28;20013;-86
2021/03/05 13:05:18;;;;;;;19.58;11.85;;;;;;;;;;5060307;28;20021;-87
2021/03/05 13:08:03;;;;;;;17.75;11.13;;;;;;;;;;5051727;28;20033;-85
2021/03/05 13:10:49;;;;;;;16.25;10.32;;;;;;;;;;5054310;28;20410;-89
2021/03/05 13:13:34;;;;;;;18.02;11.32;;;;;;;;;;5055047;28;20017;-89
2021/03/05 13:16:20;;;;;;;20.40;12.30;;;;;;;;;;5056235;28;20028;-85
2021/03/05 13:19:08;;;;;;;27.02;12.88;;;;;;;;;;5046957;28;20453;-85
2021/03/05 13:21:54;;;;;;;18.90;11.98;;;;;;;;;;5051543;28;20028;-87
2021/03/05 13:24:39;;;;;;;18.20;11.98;;;;;;;;;;5058963;28;20009;-88
2021/03/05 13:27:25;;;;;;;18.52;11.75;;;;;;;;;;5049578;28;20021;-90
2021/03/05 13:30:11;;;;;;;18.20;11.98;;;;;;;;;;5050981;28;20036;-87
2021/03/05 13:32:58;;;;;;;18.95;11.13;;;;;;;;;;5030129;28;20024;-89
2021/03/05 13:35:44;;;;;;;18.98;10.70;;;;;;;;;;5048322;28;20033;-88
2021/03/05 13:38:29;;;;;;;16.50;10.98;;;;;;;;;;5048726;28;20420;-88
2021/03/05 13:41:14;;;;;;;23.73;11.73;;;;;;;;;;5047969;28;20116;-87
2021/03/05 13:44:00;;;;;;;19.23;11.27;;;;;;;;;;5042356;28;20100;-86
2021/03/05 13:46:45;;;;;;;27.42;12.27;;;;;;;;;;5043347;28;20060;-84
2021/03/05 13:49:33;;;;;;;18.88;12.27;;;;;;;;;;5051009;28;20489;-85
2021/03/05 13:52:21;;;;;;;18.48;11.45;;;;;;;;;;5047498;28;20085;-89
2021/03/05 13:55:07;;;;;;;26.33;12.25;;;;;;;;;;5041339;28;20375;-88
2021/03/05 13:57:52;;;;;;;17.27;11.48;;;;;;;;;;5046669;28;20474;-86
2021/03/05 14:00:38;;;;;;;20.15;12.38;;;;;;;;;;5044151;28;20029;-88
2021/03/05 14:03:23;;;;;;;18.25;11.25;;;;;;;;;;5045398;28;20083;-89
2021/03/05 14:06:09;;;;;;;19.27;11.80;;;;;;;;;;5049969;28;20024;-89
2021/03/05 14:08:54;;;;;;;19.58;12.13;;;;;;;;;;5038001;28;20450;-87
2021/03/05 14:11:40;;;;;;;20.65;12.65;;;;;;;;;;5050022;28;20083;-88
2021/03/05 14:14:25;;;;;;;20.52;12.07;;;;;;;;;;5042500;28;20056;-87
2021/03/05 14:17:11;;;;;;;18.77;11.50;;;;;;;;;;5048501;28;20025;-85
2021/03/05 14:19:56;;;;;;;19.23;11.88;;;;;;;;;;5039488;28;20012;-85
2021/03/05 14:22:45;;;;;;;19.35;11.80;;;;;;;;;;5047787;28;20032;-87
2021/03/05 14:25:32;;;;;;;22.23;13.05;;;;;;;;;;5051062;28;20328;-89
2021/03/05 14:28:18;;;;;;;22.65;13.45;;;;;;;;;;5048095;28;20032;-88
2021/03/05 14:31:03;;;;;;;19.60;11.85;;;;;;;;;;5048242;28;20044;-86
2021/03/05 14:33:49;;;;;;;19.40;11.00;;;;;;;;;;5046026;28;20082;-90
2021/03/05 14:36:34;;;;;;;23.95;11.90;;;;;;;;;;5045502;28;20039;-87
2021/03/05 14:39:19;;;;;;;17.90;10.90;;;;;;;;;;5030551;28;20413;-87
2021/03/05 14:42:11;;;;;;;31.35;19.95;;;;;;;;;;5056530;28;20054;-87
2021/03/05 14:45:38;;;;;;;21.88;13.93;;;;;;;;;;5042599;28;20021;-89
2021/03/05 14:48:29;;;;;;;19.27;10.30;;;;;;;;;;5049951;28;20061;-88
2021/03/05 14:51:14;;;;;;;16.23;10.10;;;;;;;;;;5044972;28;20041;-84
2021/03/05 14:53:59;;;;;;;17.48;9.85;;;;;;;;;;5046901;28;20124;-85
2021/03/05 14:56:45;;;;;;;18.08;10.85;;;;;;;;;;5039482;28;20029;-86
2021/03/05 14:59:30;;;;;;;17.55;11.48;;;;;;;;;;5042575;28;20017;-85
2021/03/05 15:02:16;;;;;;;17.85;10.07;;;;;;;;;;5055868;28;20020;-90
2021/03/05 15:05:03;;;;;;;17.00;10.25;;;;;;;;;;5063171;28;20819;-89
2021/03/05 15:07:48;;;;;;;15.27;10.05;;;;;;;;;;5054540;28;20048;-89
2021/03/05 15:10:33;;;;;;;18.00;10.77;;;;;;;;;;5059040;28;20017;-90
2021/03/05 15:13:19;;;;;;;18.85;9.13;;;;;;;;;;5057529;28;20093;-88
2021/03/05 15:16:07;;;;;;;14.73;9.50;;;;;;;;;;5055387;28;20048;-89
2021/03/05 15:18:52;;;;;;;20.02;13.10;;;;;;;;;;5038177;28;20037;-88
2021/03/05 15:21:38;;;;;;;19.55;11.80;;;;;;;;;;5040779;28;20103;-89
2021/03/05 15:24:23;;;;;;;18.13;10.73;;;;;;;;;;5053772;28;20519;-88
2021/03/05 15:27:09;;;;;;;20.35;10.73;;;;;;;;;;5051866;28;20046;-89
2021/03/05 15:29:54;;;;;;;14.80;9.05;;;;;;;;;;5058952;28;20020;-90
2021/03/05 15:32:40;;;;;;;16.90;9.30;;;;;;;;;;5058952;28;20025;-90
2021/03/05 15:35:25;;;;;;;16.25;9.68;;;;;;;;;;5053813;28;20031;-89
2021/03/05 15:38:10;;;;;;;14.30;9.32;;;;;;;;;;5046472;28;20092;-90
2021/03/05 15:40:56;;;;;;;21.65;12.10;;;;;;;;;;5052018;28;20100;-89
2021/03/05 15:46:46;;;;;;;17.67;8.98;;;;;;;;;;5047470;28;20047;-90
2021/03/05 15:49:31;;;;;;;13.95;9.07;;;;;;;;;;5053849;28;20116;-89
2021/03/05 15:52:17;;;;;;;13.40;7.38;;;;;;;;;;5054404;28;20060;-89
2021/03/05 15:55:03;;;;;;;17.25;7.82;;;;;;;;;;5068538;28;20013;-90
2021/03/05 15:57:48;;;;;;;11.13;6.57;;;;;;;;;;5056345;28;20053;-89
2021/03/05 16:00:37;;;;;;;10.57;6.57;;;;;;;;;;5042688;28;20025;-90
2021/03/05 16:03:22;;;;;;;7.78;4.43;;;;;;;;;;5064415;28;20025;-87
2021/03/05 16:06:07;;;;;;;7.68;4.90;;;;;;;;;;5050472;28;20028;-88
2021/03/05 16:08:54;;;;;;;11.20;5.90;;;;;;;;;;5047176;28;20557;-89
2021/03/05 16:11:39;;;;;;;8.65;4.80;;;;;;;;;;5057178;28;20418;-89
2021/03/05 16:14:24;;;;;;;9.65;4.43;;;;;;;;;;5053115;28;20061;-88
2021/03/05 16:17:10;;;;;;;6.43;3.95;;;;;;;;;;5045367;28;20029;-88
2021/03/05 16:19:55;;;;;;;8.50;4.55;;;;;;;;;;5055485;28;20025;-90
2021/03/05 16:22:41;;;;;;;7.93;4.00;;;;;;;;;;5052726;28;20017;-89
2021/03/05 16:25:26;;;;;;;6.72;4.10;;;;;;;;;;5059061;28;20478;-90
2021/03/05 16:28:12;;;;;;;7.07;3.33;;;;;;;;;;5064453;28;20036;-90
2021/03/05 16:30:57;;;;;;;7.10;4.18;;;;;;;;;;5051675;28;20032;-88
2021/03/05 16:33:43;;;;;;;12.23;7.13;;;;;;;;;;5050393;28;20036;-88
2021/03/05 16:36:29;;;;;;;9.80;5.40;;;;;;;;;;5036905;28;20128;-88
2021/03/05 16:39:14;;;;;;;7.95;4.00;;;;;;;;;;5048676;28;20677;-89
2021/03/05 16:42:00;;;;;;;7.45;4.03;;;;;;;;;;5050599;28;20249;-85
2021/03/05 16:44:45;;;;;;;7.47;3.92;;;;;;;;;;5049514;28;20025;-89
2021/03/05 16:47:31;;;;;;;8.10;4.20;;;;;;;;;;5051976;28;20028;-90
2021/03/05 16:50:17;;;;;;;7.78;4.68;;;;;;;;;;5050669;28;20490;-89
2021/03/05 16:53:03;;;;;;;8.38;4.38;;;;;;;;;;5048815;28;20062;-88
2021/03/05 16:55:48;;;;;;;8.07;4.40;;;;;;;;;;5055427;28;20032;-88
2021/03/05 16:58:33;;;;;;;8.23;4.57;;;;;;;;;;5056769;28;20056;-85
2021/03/05 17:01:21;;;;;;;8.02;4.50;;;;;;;;;;5042464;28;20522;-85
2021/03/05 17:04:07;;;;;;;36.28;23.60;;;;;;;;;;5040482;28;20029;-87
2021/03/05 17:06:52;;;;;;;7.78;4.82;;;;;;;;;;5064109;28;20504;-89
2021/03/05 17:09:37;;;;;;;11.73;4.00;;;;;;;;;;5052407;28;20031;-88
2021/03/05 17:12:23;;;;;;;9.10;4.75;;;;;;;;;;5032016;28;20140;-90
2021/03/05 17:15:08;;;;;;;9.52;4.97;;;;;;;;;;5055127;28;20025;-90
2021/03/05 17:17:53;;;;;;;8.07;4.68;;;;;;;;;;5048975;28;20031;-87
2021/03/05 17:20:39;;;;;;;7.70;4.57;;;;;;;;;;5051373;28;20109;-89
2021/03/05 17:23:24;;;;;;;8.93;5.35;;;;;;;;;;5044325;28;20048;-87
2021/03/05 17:26:09;;;;;;;7.43;4.35;;;;;;;;;;5054177;28;20380;-89
2021/03/05 17:28:55;;;;;;;10.40;5.80;;;;;;;;;;5051448;28;20037;-87
2021/03/05 17:31:40;;;;;;;9.93;6.28;;;;;;;;;;5051404;28;20480;-89
2021/03/05 17:34:25;;;;;;;9.32;5.15;;;;;;;;;;5049114;28;20131;-88
2021/03/05 17:37:10;;;;;;;10.68;6.05;;;;;;;;;;5054092;28;20017;-88
2021/03/05 17:39:57;;;;;;;8.52;4.70;;;;;;;;;;5062026;28;20080;-89
2021/03/05 17:42:42;;;;;;;10.43;5.65;;;;;;;;;;5046876;28;20047;-87
2021/03/05 17:45:28;;;;;;;10.50;6.75;;;;;;;;;;5059790;28;20033;-89
2021/03/05 17:48:16;;;;;;;10.27;5.72;;;;;;;;;;5033501;28;20028;-92
2021/03/05 17:51:04;;;;;;;10.82;5.47;;;;;;;;;;5056960;28;20115;-90
2021/03/05 17:53:50;;;;;;;11.05;5.35;;;;;;;;;;5040332;28;20075;-92
2021/03/05 17:56:35;;;;;;;10.20;5.35;;;;;;;;;;5051147;28;20031;-89
2021/03/05 17:59:20;;;;;;;8.88;4.65;;;;;;;;;;5043159;28;20021;-91
2021/03/05 18:02:05;;;;;;;9.13;5.60;;;;;;;;;;5054831;28;20009;-89
2021/03/05 18:04:51;;;;;;;10.77;6.22;;;;;;;;;;5050188;28;20020;-93
2021/03/05 18:07:37;;;;;;;9.07;5.68;;;;;;;;;;5049239;28;20021;-88
2021/03/05 18:10:22;;;;;;;11.93;6.45;;;;;;;;;;5048148;28;20032;-90
2021/03/05 18:13:08;;;;;;;10.32;6.53;;;;;;;;;;5036334;28;20021;-90
2021/03/05 18:15:53;;;;;;;12.10;7.28;;;;;;;;;;5047887;28;20078;-88
2021/03/05 18:18:39;;;;;;;10.70;6.90;;;;;;;;;;5042737;28;20063;-88
2021/03/05 18:21:24;;;;;;;12.23;6.35;;;;;;;;;;5049957;28;20016;-90
2021/03/05 18:24:10;;;;;;;11.73;6.65;;;;;;;;;;5055355;28;20023;-92
2021/03/05 18:26:56;;;;;;;11.68;6.63;;;;;;;;;;5057515;28;20082;-90
2021/03/05 18:29:41;;;;;;;14.68;7.25;;;;;;;;;;5063166;28;20028;-91
2021/03/05 18:32:26;;;;;;;12.20;6.30;;;;;;;;;;5069247;28;20020;-94
2021/03/05 18:35:15;;;;;;;10.85;6.00;;;;;;;;;;5037067;28;20029;-92
2021/03/05 18:38:02;;;;;;;13.93;8.07;;;;;;;;;;5052172;28;20103;-92
2021/03/05 18:40:48;;;;;;;12.65;7.47;;;;;;;;;;5049358;28;20020;-89
2021/03/05 18:43:33;;;;;;;12.38;7.45;;;;;;;;;;5046956;28;20040;-92
2021/03/05 18:46:19;;;;;;;13.30;6.68;;;;;;;;;;5047725;28;20037;-89
2021/03/05 18:49:07;;;;;;;12.20;7.70;;;;;;;;;;5044268;28;20028;-87
2021/03/05 18:51:56;;;;;;;11.68;7.22;;;;;;;;;;5050918;28;20068;-92
2021/03/05 18:54:45;;;;;;;13.30;7.45;;;;;;;;;;5046817;28;20037;-89
2021/03/05 18:57:30;;;;;;;15.05;7.50;;;;;;;;;;5045397;28;20072;-90
2021/03/05 19:00:16;;;;;;;13.95;7.47;;;;;;;;;;5031222;28;20029;-90
2021/03/05 19:03:02;;;;;;;13.32;7.30;;;;;;;;;;5050871;28;20025;-91
2021/03/05 19:05:50;;;;;;;13.00;8.02;;;;;;;;;;5049043;28;20033;-89
2021/03/05 19:08:36;;;;;;;14.25;8.27;;;;;;;;;;5039966;28;20020;-88
2021/03/05 19:11:21;;;;;;;12.07;7.22;;;;;;;;;;5057627;28;20025;-91
2021/03/05 19:14:07;;;;;;;11.57;6.22;;;;;;;;;;5056656;28;20027;-90
2021/03/05 19:16:52;;;;;;;13.25;7.80;;;;;;;;;;5059637;28;20120;-89
2021/03/05 19:19:37;;;;;;;13.90;7.80;;;;;;;;;;5058803;28;20067;-89
2021/03/05 19:22:23;;;;;;;14.80;8.02;;;;;;;;;;5044538;28;20114;-88
2021/03/05 19:25:11;;;;;;;13.75;8.10;;;;;;;;;;5051398;28;20028;-91
2021/03/05 19:27:57;;;;;;;11.57;6.75;;;;;;;;;;5047514;28;20031;-92
2021/03/05 19:30:45;;;;;;;13.55;8.50;;;;;;;;;;5049358;28;20075;-91
2021/03/05 19:33:30;;;;;;;13.85;7.78;;;;;;;;;;5052151;28;20051;-90
2021/03/05 19:36:16;;;;;;;17.85;8.70;;;;;;;;;;5066267;28;20024;-92
2021/03/05 19:39:05;;;;;;;15.40;8.35;;;;;;;;;;5057643;28;20024;-91
2021/03/05 19:41:58;;;;;;;16.08;8.20;;;;;;;;;;5053110;28;20026;-91
2021/03/05 19:44:47;;;;;;;13.43;8.02;;;;;;;;;;5066692;28;20054;-91
2021/03/05 19:47:35;;;;;;;14.25;8.27;;;;;;;;;;5057637;28;20066;-91
2021/03/05 19:50:26;;;;;;;12.70;7.57;;;;;;;;;;5063468;28;20044;-88
2021/03/05 19:53:12;;;;;;;12.88;7.38;;;;;;;;;;5051903;28;20020;-91
2021/03/05 20:00:14;;;;;;;14.45;7.53;;;;;;;;;;4894813;29;20069;-92
2021/03/05 20:13:16;;;;;;;16.45;8.13;;;;;;;;;;4884827;29;20902;-90
2021/03/05 20:16:07;;;;;;;14.57;8.25;;;;;;;;;;4871687;28;20055;-89
2021/03/05 20:18:54;;;;;;;14.20;7.47;;;;;;;;;;4980765;28;20084;-89
2021/03/05 20:25:26;;;;;;;14.77;8.60;;;;;;;;;;5037523;28;20079;-92
2021/03/05 20:28:31;;;;;;;15.52;8.07;;;;;;;;;;5065190;28;20032;-89
2021/03/05 20:31:38;;;;;;;15.65;8.38;;;;;;;;;;5060088;28;20047;-89
2021/03/05 20:34:26;;;;;;;14.70;7.90;;;;;;;;;;5047208;28;20093;-85
2021/03/05 20:37:24;;;;;;;13.65;7.88;;;;;;;;;;5059790;28;20025;-88
2021/03/05 20:40:38;;;;;;;13.32;8.65;;;;;;;;;;5063621;28;20021;-89
2021/03/05 20:43:26;;;;;;;11.45;7.43;;;;;;;;;;5078051;28;20036;-89
2021/03/05 20:46:14;;;;;;;14.43;7.80;;;;;;;;;;5049754;28;20024;-88
2021/03/05 20:48:59;;;;;;;14.95;8.82;;;;;;;;;;5055999;28;20021;-88
2021/03/05 20:51:51;;;;;;;13.30;8.40;;;;;;;;;;5047310;28;20029;-90
2021/03/05 20:58:05;;;;;;;24.08;8.63;;;;;;;;;;5055229;28;20033;-89
2021/03/05 21:00:54;;;;;;;18.40;8.88;;;;;;;;;;5048763;28;20021;-88
2021/03/05 21:03:43;;;;;;;13.35;8.07;;;;;;;;;;5064444;28;20108;-87
2021/03/05 21:06:39;;;;;;;15.23;8.10;;;;;;;;;;5053530;28;20033;-89
2021/03/05 21:09:28;;;;;;;12.68;7.82;;;;;;;;;;5053249;28;20037;-89
2021/03/05 21:12:14;;;;;;;30.77;18.90;;;;;;;;;;5048727;28;20147;-93
2021/03/05 21:15:03;;;;;;;16.02;10.32;;;;;;;;;;5051312;28;20026;-88
2021/03/05 21:18:06;;;;;;;16.60;7.68;;;;;;;;;;5054669;28;20491;-89
2021/03/05 21:20:51;;;;;;;15.57;7.93;;;;;;;;;;5050192;28;20080;-89
2021/03/05 21:24:09;;;;;;;13.00;7.80;;;;;;;;;;5057363;28;20021;-91
2021/03/05 21:26:57;;;;;;;13.90;7.80;;;;;;;;;;5057363;28;20178;-90
2021/03/05 21:29:45;;;;;;;13.23;7.78;;;;;;;;;;5054163;28;20025;-90
2021/03/05 21:33:08;;;;;;;13.52;8.23;;;;;;;;;;5066956;28;20034;-92
2021/03/05 21:35:56;;;;;;;14.43;8.95;;;;;;;;;;5052561;28;20021;-89
2021/03/05 21:38:42;;;;;;;15.27;8.68;;;;;;;;;;5042652;28;20052;-89
2021/03/05 21:41:30;;;;;;;14.45;9.65;;;;;;;;;;5046937;28;20056;-89
2021/03/05 21:44:18;;;;;;;12.50;7.55;;;;;;;;;;5055193;28;20020;-88
2021/03/05 21:47:05;;;;;;;15.15;7.93;;;;;;;;;;5052452;28;20090;-90
2021/03/05 21:52:29;;;;;;;15.02;8.68;;;;;;;;;;5446203;23;20068;-91
2021/03/05 22:05:51;;;;;;;11.00;6.78;;;;;;;;;;5983647;22;20069;-88
2021/03/05 22:19:05;;;;;;;12.27;7.07;;;;;;;;;;4989123;28;20109;-91
2021/03/05 22:21:53;;;;;;;16.30;8.75;;;;;;;;;;4976592;28;20373;-87
2021/03/05 22:25:01;;;;;;;14.38;7.65;;;;;;;;;;4987097;28;20041;-90
2021/03/05 22:31:45;;;;;;;12.63;8.10;;;;;;;;;;4993570;28;20065;-91
2021/03/05 22:38:23;;;;;;;14.77;8.43;;;;;;;;;;4921223;29;20032;-91
2021/03/05 22:44:56;;;;;;;12.73;7.47;;;;;;;;;;4882582;28;20020;-90
2021/03/05 22:48:06;;;;;;;;;;;;;;;;;;;;;
2021/03/05 22:54:46;;;;;;;13.52;7.60;;;;;;;;;;4871906;29;20025;-92
2021/03/05 23:21:54;;;;;;;13.67;5.97;;;;;;;;;;4792764;29;20029;-91
2021/03/05 23:35:29;;;;;;;;;;;;;;;;;;;;;
